sensor_id;sensor_type;location;lat;lon;timestamp;temperature;humidity
1626;DHT22;806;48.770;9.156;2023-03-23T00:01:46;14.20;1.00
1626;DHT22;806;48.770;9.156;2023-03-23T00:04:15;14.20;1.00
1626;DHT22;806;48.770;9.156;2023-03-23T00:06:43;14.20;1.00
1626;DHT22;806;48.770;9.156;2023-03-23T00:09:10;14.30;1.00
1626;DHT22;806;48.770;9.156;2023-03-23T00:11:39;14.30;1.00
1626;DHT22;806;48.770;9.156;2023-03-23T00:14:06;14.30;1.00
1626;DHT22;806;48.770;9.156;2023-03-23T00:16:39;14.30;1.00
1626;DHT22;806;48.770;9.156;2023-03-23T00:19:08;14.30;1.00
1626;DHT22;806;48.770;9.156;2023-03-23T00:21:39;14.30;1.00
1626;DHT22;806;48.770;9.156;2023-03-23T00:24:08;14.30;1.00
1626;DHT22;806;48.770;9.156;2023-03-23T00:26:37;14.30;1.00
1626;DHT22;806;48.770;9.156;2023-03-23T00:29:12;14.40;1.00
1626;DHT22;806;48.770;9.156;2023-03-23T00:31:40;14.40;1.00
1626;DHT22;806;48.770;9.156;2023-03-23T00:34:12;14.30;1.00
1626;DHT22;806;48.770;9.156;2023-03-23T00:36:45;14.40;1.00
1626;DHT22;806;48.770;9.156;2023-03-23T00:39:12;14.30;1.00
1626;DHT22;806;48.770;9.156;2023-03-23T00:41:41;14.30;1.00
1626;DHT22;806;48.770;9.156;2023-03-23T00:44:10;14.30;1.00
1626;DHT22;806;48.770;9.156;2023-03-23T00:46:42;14.40;1.00
1626;DHT22;806;48.770;9.156;2023-03-23T00:49:11;14.30;1.00
1626;DHT22;806;48.770;9.156;2023-03-23T00:51:39;14.30;1.00
1626;DHT22;806;48.770;9.156;2023-03-23T00:54:06;14.30;1.00
1626;DHT22;806;48.770;9.156;2023-03-23T00:56:34;14.20;1.00
1626;DHT22;806;48.770;9.156;2023-03-23T00:59:01;14.20;1.00
1626;DHT22;806;48.770;9.156;2023-03-23T01:01:30;14.20;1.00
1626;DHT22;806;48.770;9.156;2023-03-23T01:03:58;14.10;1.00
1626;DHT22;806;48.770;9.156;2023-03-23T01:06:27;14.10;1.00
1626;DHT22;806;48.770;9.156;2023-03-23T01:08:54;14.10;1.00
1626;DHT22;806;48.770;9.156;2023-03-23T01:11:22;14.10;1.00
1626;DHT22;806;48.770;9.156;2023-03-23T01:13:50;14.10;1.00
1626;DHT22;806;48.770;9.156;2023-03-23T01:16:17;14.00;1.00
1626;DHT22;806;48.770;9.156;2023-03-23T01:18:46;14.00;1.00
1626;DHT22;806;48.770;9.156;2023-03-23T01:21:14;14.00;1.00
1626;DHT22;806;48.770;9.156;2023-03-23T01:23:42;14.10;1.00
1626;DHT22;806;48.770;9.156;2023-03-23T01:26:11;14.00;1.00
1626;DHT22;806;48.770;9.156;2023-03-23T01:28:38;14.00;1.00
1626;DHT22;806;48.770;9.156;2023-03-23T01:31:07;14.00;1.00
1626;DHT22;806;48.770;9.156;2023-03-23T01:33:35;14.00;1.00
1626;DHT22;806;48.770;9.156;2023-03-23T01:36:05;13.90;1.00
1626;DHT22;806;48.770;9.156;2023-03-23T01:38:34;13.80;1.00
1626;DHT22;806;48.770;9.156;2023-03-23T01:41:01;13.80;1.00
1626;DHT22;806;48.770;9.156;2023-03-23T01:43:28;13.70;1.00
1626;DHT22;806;48.770;9.156;2023-03-23T01:45:55;13.70;1.00
1626;DHT22;806;48.770;9.156;2023-03-23T01:48:24;13.70;1.00
1626;DHT22;806;48.770;9.156;2023-03-23T01:50:56;13.70;1.00
1626;DHT22;806;48.770;9.156;2023-03-23T01:53:30;13.70;1.00
1626;DHT22;806;48.770;9.156;2023-03-23T01:56:01;13.70;1.00
1626;DHT22;806;48.770;9.156;2023-03-23T01:58:31;13.70;1.00
1626;DHT22;806;48.770;9.156;2023-03-23T02:01:03;13.70;1.00
1626;DHT22;806;48.770;9.156;2023-03-23T02:03:32;13.60;1.00
1626;DHT22;806;48.770;9.156;2023-03-23T02:06:00;13.70;1.00
1626;DHT22;806;48.770;9.156;2023-03-23T02:08:29;13.70;1.00
1626;DHT22;806;48.770;9.156;2023-03-23T02:10:59;13.70;1.00
1626;DHT22;806;48.770;9.156;2023-03-23T02:13:26;13.70;1.00
1626;DHT22;806;48.770;9.156;2023-03-23T02:16:01;13.70;1.00
1626;DHT22;806;48.770;9.156;2023-03-23T02:18:40;13.70;1.00
1626;DHT22;806;48.770;9.156;2023-03-23T02:24:58;13.70;1.00
1626;DHT22;806;48.770;9.156;2023-03-23T02:30:48;13.70;1.00
1626;DHT22;806;48.770;9.156;2023-03-23T02:33:38;13.80;1.00
1626;DHT22;806;48.770;9.156;2023-03-23T02:36:14;13.80;1.00
1626;DHT22;806;48.770;9.156;2023-03-23T02:38:53;13.80;1.00
1626;DHT22;806;48.770;9.156;2023-03-23T02:41:25;13.80;1.00
1626;DHT22;806;48.770;9.156;2023-03-23T02:43:55;13.80;1.00
1626;DHT22;806;48.770;9.156;2023-03-23T02:46:23;13.80;1.00
1626;DHT22;806;48.770;9.156;2023-03-23T02:48:53;13.80;1.00
1626;DHT22;806;48.770;9.156;2023-03-23T02:51:23;13.70;1.00
1626;DHT22;806;48.770;9.156;2023-03-23T02:53:52;13.80;1.00
1626;DHT22;806;48.770;9.156;2023-03-23T02:56:22;13.80;1.00
1626;DHT22;806;48.770;9.156;2023-03-23T02:58:50;13.80;1.00
1626;DHT22;806;48.770;9.156;2023-03-23T03:04:20;13.70;1.00
1626;DHT22;806;48.770;9.156;2023-03-23T03:06:56;13.80;1.00
1626;DHT22;806;48.770;9.156;2023-03-23T03:09:33;13.80;1.00
1626;DHT22;806;48.770;9.156;2023-03-23T03:12:08;13.70;1.00
1626;DHT22;806;48.770;9.156;2023-03-23T03:14:38;13.70;16.90
1626;DHT22;806;48.770;9.156;2023-03-23T03:17:10;13.70;6.50
1626;DHT22;806;48.770;9.156;2023-03-23T03:19:42;13.70;25.80
1626;DHT22;806;48.770;9.156;2023-03-23T03:22:11;13.70;32.90
1626;DHT22;806;48.770;9.156;2023-03-23T03:24:39;13.70;13.20
1626;DHT22;806;48.770;9.156;2023-03-23T03:27:11;13.70;14.80
1626;DHT22;806;48.770;9.156;2023-03-23T03:29:40;13.70;26.80
1626;DHT22;806;48.770;9.156;2023-03-23T03:32:12;13.80;22.60
1626;DHT22;806;48.770;9.156;2023-03-23T03:34:40;13.80;33.20
1626;DHT22;806;48.770;9.156;2023-03-23T03:37:08;13.80;21.80
1626;DHT22;806;48.770;9.156;2023-03-23T03:39:38;13.80;30.00
1626;DHT22;806;48.770;9.156;2023-03-23T03:42:05;13.90;19.20
1626;DHT22;806;48.770;9.156;2023-03-23T03:44:33;13.90;4.50
1626;DHT22;806;48.770;9.156;2023-03-23T03:47:00;13.90;6.80
1626;DHT22;806;48.770;9.156;2023-03-23T03:49:27;14.00;8.10
1626;DHT22;806;48.770;9.156;2023-03-23T03:51:56;14.00;1.00
1626;DHT22;806;48.770;9.156;2023-03-23T03:54:23;13.90;1.00
1626;DHT22;806;48.770;9.156;2023-03-23T03:56:50;14.00;1.00
1626;DHT22;806;48.770;9.156;2023-03-23T03:59:17;14.00;1.00
1626;DHT22;806;48.770;9.156;2023-03-23T04:01:44;14.00;1.00
1626;DHT22;806;48.770;9.156;2023-03-23T04:04:11;14.10;1.00
1626;DHT22;806;48.770;9.156;2023-03-23T04:06:38;14.10;1.00
1626;DHT22;806;48.770;9.156;2023-03-23T04:09:07;14.10;1.00
1626;DHT22;806;48.770;9.156;2023-03-23T04:11:34;14.10;1.00
1626;DHT22;806;48.770;9.156;2023-03-23T04:14:01;14.10;1.00
1626;DHT22;806;48.770;9.156;2023-03-23T04:16:28;14.10;1.00
1626;DHT22;806;48.770;9.156;2023-03-23T04:18:56;14.00;1.00
1626;DHT22;806;48.770;9.156;2023-03-23T04:21:23;14.10;2.10
1626;DHT22;806;48.770;9.156;2023-03-23T04:23:54;14.20;1.00
1626;DHT22;806;48.770;9.156;2023-03-23T04:26:26;14.20;1.00
1626;DHT22;806;48.770;9.156;2023-03-23T04:28:54;14.20;1.00
1626;DHT22;806;48.770;9.156;2023-03-23T04:31:21;14.20;1.00
1626;DHT22;806;48.770;9.156;2023-03-23T04:33:50;14.20;1.00
1626;DHT22;806;48.770;9.156;2023-03-23T04:36:19;14.20;1.00
1626;DHT22;806;48.770;9.156;2023-03-23T04:38:48;14.20;1.00
1626;DHT22;806;48.770;9.156;2023-03-23T04:41:20;14.20;1.00
1626;DHT22;806;48.770;9.156;2023-03-23T04:43:48;14.20;3.80
1626;DHT22;806;48.770;9.156;2023-03-23T04:46:18;14.20;21.00
1626;DHT22;806;48.770;9.156;2023-03-23T04:48:46;14.20;20.80
1626;DHT22;806;48.770;9.156;2023-03-23T04:51:14;14.20;19.50
1626;DHT22;806;48.770;9.156;2023-03-23T04:53:41;14.20;12.20
1626;DHT22;806;48.770;9.156;2023-03-23T04:56:08;14.20;7.00
1626;DHT22;806;48.770;9.156;2023-03-23T04:58:35;14.20;14.20
1626;DHT22;806;48.770;9.156;2023-03-23T05:01:04;14.20;9.30
1626;DHT22;806;48.770;9.156;2023-03-23T05:03:31;14.20;14.20
1626;DHT22;806;48.770;9.156;2023-03-23T05:06:01;14.20;11.80
1626;DHT22;806;48.770;9.156;2023-03-23T05:08:28;14.30;2.10
1626;DHT22;806;48.770;9.156;2023-03-23T05:10:58;14.30;1.00
1626;DHT22;806;48.770;9.156;2023-03-23T05:13:26;14.40;1.00
1626;DHT22;806;48.770;9.156;2023-03-23T05:15:53;14.50;1.00
1626;DHT22;806;48.770;9.156;2023-03-23T05:18:22;14.40;1.00
1626;DHT22;806;48.770;9.156;2023-03-23T05:20:49;14.40;1.00
1626;DHT22;806;48.770;9.156;2023-03-23T05:23:18;14.40;1.00
1626;DHT22;806;48.770;9.156;2023-03-23T05:25:53;14.40;1.00
1626;DHT22;806;48.770;9.156;2023-03-23T05:28:20;14.40;1.00
1626;DHT22;806;48.770;9.156;2023-03-23T05:30:47;14.40;1.00
1626;DHT22;806;48.770;9.156;2023-03-23T05:33:14;14.40;1.00
1626;DHT22;806;48.770;9.156;2023-03-23T05:35:43;14.40;1.00
1626;DHT22;806;48.770;9.156;2023-03-23T05:38:12;14.50;1.00
1626;DHT22;806;48.770;9.156;2023-03-23T05:40:40;14.50;1.00
1626;DHT22;806;48.770;9.156;2023-03-23T05:43:08;14.50;1.00
1626;DHT22;806;48.770;9.156;2023-03-23T05:45:35;14.50;1.00
1626;DHT22;806;48.770;9.156;2023-03-23T05:48:02;14.50;1.00
1626;DHT22;806;48.770;9.156;2023-03-23T05:50:29;14.50;1.00
1626;DHT22;806;48.770;9.156;2023-03-23T05:52:57;14.50;1.00
1626;DHT22;806;48.770;9.156;2023-03-23T05:55:24;14.50;1.00
1626;DHT22;806;48.770;9.156;2023-03-23T05:57:51;14.50;1.00
1626;DHT22;806;48.770;9.156;2023-03-23T06:00:19;14.60;1.00
1626;DHT22;806;48.770;9.156;2023-03-23T06:02:49;14.60;7.50
1626;DHT22;806;48.770;9.156;2023-03-23T06:05:17;14.60;4.20
1626;DHT22;806;48.770;9.156;2023-03-23T06:07:45;14.60;13.20
1626;DHT22;806;48.770;9.156;2023-03-23T06:10:13;14.60;33.30
1626;DHT22;806;48.770;9.156;2023-03-23T06:12:40;14.70;11.10
1626;DHT22;806;48.770;9.156;2023-03-23T06:15:09;14.70;1.00
1626;DHT22;806;48.770;9.156;2023-03-23T06:17:36;14.70;1.00
1626;DHT22;806;48.770;9.156;2023-03-23T06:20:04;14.70;9.30
1626;DHT22;806;48.770;9.156;2023-03-23T06:22:35;14.80;7.80
1626;DHT22;806;48.770;9.156;2023-03-23T06:25:04;14.80;11.30
1626;DHT22;806;48.770;9.156;2023-03-23T06:27:33;14.70;1.00
1626;DHT22;806;48.770;9.156;2023-03-23T06:30:00;14.70;15.10
1626;DHT22;806;48.770;9.156;2023-03-23T06:32:30;14.70;7.30
1626;DHT22;806;48.770;9.156;2023-03-23T06:34:58;14.70;29.40
1626;DHT22;806;48.770;9.156;2023-03-23T06:37:25;14.70;21.40
1626;DHT22;806;48.770;9.156;2023-03-23T06:39:52;14.70;32.20
1626;DHT22;806;48.770;9.156;2023-03-23T06:42:21;14.70;52.40
1626;DHT22;806;48.770;9.156;2023-03-23T06:44:51;14.70;84.50
1626;DHT22;806;48.770;9.156;2023-03-23T06:47:18;14.70;99.90
1626;DHT22;806;48.770;9.156;2023-03-23T06:49:45;14.70;92.30
1626;DHT22;806;48.770;9.156;2023-03-23T06:52:12;14.80;99.90
1626;DHT22;806;48.770;9.156;2023-03-23T06:54:38;14.90;99.90
1626;DHT22;806;48.770;9.156;2023-03-23T06:57:05;15.00;46.40
1626;DHT22;806;48.770;9.156;2023-03-23T06:59:32;15.20;40.80
1626;DHT22;806;48.770;9.156;2023-03-23T07:02:01;15.30;55.30
1626;DHT22;806;48.770;9.156;2023-03-23T07:04:28;15.40;32.00
1626;DHT22;806;48.770;9.156;2023-03-23T07:06:56;15.60;31.50
1626;DHT22;806;48.770;9.156;2023-03-23T07:09:23;15.50;1.00
1626;DHT22;806;48.770;9.156;2023-03-23T07:11:51;15.50;1.00
1626;DHT22;806;48.770;9.156;2023-03-23T07:14:18;15.50;1.00
1626;DHT22;806;48.770;9.156;2023-03-23T07:16:47;15.50;1.00
1626;DHT22;806;48.770;9.156;2023-03-23T07:19:16;15.40;1.00
1626;DHT22;806;48.770;9.156;2023-03-23T07:21:43;15.40;1.00
1626;DHT22;806;48.770;9.156;2023-03-23T07:24:10;15.40;1.00
1626;DHT22;806;48.770;9.156;2023-03-23T07:26:39;15.50;1.00
1626;DHT22;806;48.770;9.156;2023-03-23T07:29:07;15.50;1.00
1626;DHT22;806;48.770;9.156;2023-03-23T07:31:34;15.50;1.00
1626;DHT22;806;48.770;9.156;2023-03-23T07:34:01;15.50;1.00
1626;DHT22;806;48.770;9.156;2023-03-23T07:36:30;15.50;1.00
1626;DHT22;806;48.770;9.156;2023-03-23T07:38:58;15.50;1.00
1626;DHT22;806;48.770;9.156;2023-03-23T07:41:25;15.60;1.00
1626;DHT22;806;48.770;9.156;2023-03-23T07:43:52;15.60;1.00
1626;DHT22;806;48.770;9.156;2023-03-23T07:46:19;15.60;1.00
1626;DHT22;806;48.770;9.156;2023-03-23T07:48:46;15.70;1.00
1626;DHT22;806;48.770;9.156;2023-03-23T07:51:13;15.80;1.00
1626;DHT22;806;48.770;9.156;2023-03-23T07:53:43;15.90;1.00
1626;DHT22;806;48.770;9.156;2023-03-23T07:56:12;16.10;1.00
1626;DHT22;806;48.770;9.156;2023-03-23T07:58:40;16.20;1.00
1626;DHT22;806;48.770;9.156;2023-03-23T08:01:07;16.30;1.00
1626;DHT22;806;48.770;9.156;2023-03-23T08:03:34;16.20;1.00
1626;DHT22;806;48.770;9.156;2023-03-23T08:06:01;16.30;1.00
1626;DHT22;806;48.770;9.156;2023-03-23T08:08:28;16.30;1.00
1626;DHT22;806;48.770;9.156;2023-03-23T08:10:57;16.30;1.00
1626;DHT22;806;48.770;9.156;2023-03-23T08:13:24;16.30;1.00
1626;DHT22;806;48.770;9.156;2023-03-23T08:15:54;16.20;1.00
1626;DHT22;806;48.770;9.156;2023-03-23T08:18:25;16.30;1.00
1626;DHT22;806;48.770;9.156;2023-03-23T08:20:52;16.30;1.00
1626;DHT22;806;48.770;9.156;2023-03-23T08:23:20;16.30;1.00
1626;DHT22;806;48.770;9.156;2023-03-23T08:25:47;16.20;1.00
1626;DHT22;806;48.770;9.156;2023-03-23T08:28:16;16.30;1.00
1626;DHT22;806;48.770;9.156;2023-03-23T08:30:43;16.30;1.00
1626;DHT22;806;48.770;9.156;2023-03-23T08:33:10;16.20;2.20
1626;DHT22;806;48.770;9.156;2023-03-23T08:35:37;16.20;19.40
1626;DHT22;806;48.770;9.156;2023-03-23T08:38:04;16.30;34.60
1626;DHT22;806;48.770;9.156;2023-03-23T08:40:32;16.30;56.30
1626;DHT22;806;48.770;9.156;2023-03-23T08:42:59;16.20;90.80
1626;DHT22;806;48.770;9.156;2023-03-23T08:45:27;16.20;99.90
1626;DHT22;806;48.770;9.156;2023-03-23T08:47:54;16.20;99.90
1626;DHT22;806;48.770;9.156;2023-03-23T08:50:23;16.30;99.90
1626;DHT22;806;48.770;9.156;2023-03-23T08:52:50;16.20;99.90
1626;DHT22;806;48.770;9.156;2023-03-23T08:55:18;16.20;99.90
1626;DHT22;806;48.770;9.156;2023-03-23T08:57:46;16.20;99.90
1626;DHT22;806;48.770;9.156;2023-03-23T09:00:18;16.20;99.90
1626;DHT22;806;48.770;9.156;2023-03-23T09:02:48;16.20;99.90
1626;DHT22;806;48.770;9.156;2023-03-23T09:05:17;16.30;99.90
1626;DHT22;806;48.770;9.156;2023-03-23T09:07:48;16.50;99.90
1626;DHT22;806;48.770;9.156;2023-03-23T09:10:16;16.50;99.90
1626;DHT22;806;48.770;9.156;2023-03-23T09:12:45;16.50;99.90
1626;DHT22;806;48.770;9.156;2023-03-23T09:15:15;16.50;99.90
1626;DHT22;806;48.770;9.156;2023-03-23T09:17:44;16.40;99.90
1626;DHT22;806;48.770;9.156;2023-03-23T09:20:14;16.20;99.90
1626;DHT22;806;48.770;9.156;2023-03-23T09:22:43;16.10;99.90
1626;DHT22;806;48.770;9.156;2023-03-23T09:25:12;16.10;99.90
1626;DHT22;806;48.770;9.156;2023-03-23T09:27:41;16.20;99.90
1626;DHT22;806;48.770;9.156;2023-03-23T09:30:11;16.40;99.90
1626;DHT22;806;48.770;9.156;2023-03-23T09:32:38;16.50;99.90
1626;DHT22;806;48.770;9.156;2023-03-23T09:35:08;16.50;99.90
1626;DHT22;806;48.770;9.156;2023-03-23T09:37:39;16.40;99.90
1626;DHT22;806;48.770;9.156;2023-03-23T09:40:10;16.30;99.90
1626;DHT22;806;48.770;9.156;2023-03-23T09:42:57;16.40;99.90
1626;DHT22;806;48.770;9.156;2023-03-23T09:45:31;16.50;99.90
1626;DHT22;806;48.770;9.156;2023-03-23T09:48:33;16.50;99.90
1626;DHT22;806;48.770;9.156;2023-03-23T09:51:09;16.50;99.90
1626;DHT22;806;48.770;9.156;2023-03-23T09:53:42;16.40;99.90
1626;DHT22;806;48.770;9.156;2023-03-23T09:56:12;16.50;99.90
1626;DHT22;806;48.770;9.156;2023-03-23T09:58:45;16.60;99.90
1626;DHT22;806;48.770;9.156;2023-03-23T10:01:18;16.80;99.90
1626;DHT22;806;48.770;9.156;2023-03-23T10:03:47;16.80;99.90
1626;DHT22;806;48.770;9.156;2023-03-23T10:06:16;16.80;99.90
1626;DHT22;806;48.770;9.156;2023-03-23T10:08:47;17.00;99.90
1626;DHT22;806;48.770;9.156;2023-03-23T10:11:22;16.90;99.90
1626;DHT22;806;48.770;9.156;2023-03-23T10:14:18;17.00;99.70
1626;DHT22;806;48.770;9.156;2023-03-23T10:16:56;17.00;99.90
1626;DHT22;806;48.770;9.156;2023-03-23T10:19:31;17.20;92.80
1626;DHT22;806;48.770;9.156;2023-03-23T10:22:02;17.30;93.50
1626;DHT22;806;48.770;9.156;2023-03-23T10:24:35;17.20;79.00
1626;DHT22;806;48.770;9.156;2023-03-23T10:27:10;17.40;76.20
1626;DHT22;806;48.770;9.156;2023-03-23T10:29:43;17.60;52.00
1626;DHT22;806;48.770;9.156;2023-03-23T10:32:12;17.60;35.80
1626;DHT22;806;48.770;9.156;2023-03-23T10:34:44;17.70;31.40
1626;DHT22;806;48.770;9.156;2023-03-23T10:37:16;17.70;20.90
1626;DHT22;806;48.770;9.156;2023-03-23T10:39:49;17.60;18.40
1626;DHT22;806;48.770;9.156;2023-03-23T10:42:25;17.30;62.10
1626;DHT22;806;48.770;9.156;2023-03-23T10:44:53;17.20;96.20
1626;DHT22;806;48.770;9.156;2023-03-23T10:47:20;17.10;99.90
1626;DHT22;806;48.770;9.156;2023-03-23T10:49:50;17.10;99.90
1626;DHT22;806;48.770;9.156;2023-03-23T10:52:27;17.00;99.90
1626;DHT22;806;48.770;9.156;2023-03-23T10:55:00;17.10;99.90
1626;DHT22;806;48.770;9.156;2023-03-23T10:57:29;17.20;99.90
1626;DHT22;806;48.770;9.156;2023-03-23T11:00:02;17.30;99.90
1626;DHT22;806;48.770;9.156;2023-03-23T11:02:37;17.40;99.90
1626;DHT22;806;48.770;9.156;2023-03-23T11:05:12;17.60;99.90
1626;DHT22;806;48.770;9.156;2023-03-23T11:07:40;17.80;99.90
1626;DHT22;806;48.770;9.156;2023-03-23T11:10:21;18.00;63.40
1626;DHT22;806;48.770;9.156;2023-03-23T11:12:50;18.00;35.60
1626;DHT22;806;48.770;9.156;2023-03-23T11:15:26;18.00;18.70
1626;DHT22;806;48.770;9.156;2023-03-23T11:17:59;18.00;16.80
1626;DHT22;806;48.770;9.156;2023-03-23T11:20:27;17.80;11.20
1626;DHT22;806;48.770;9.156;2023-03-23T11:22:55;17.80;22.00
1626;DHT22;806;48.770;9.156;2023-03-23T11:25:24;17.80;20.80
1626;DHT22;806;48.770;9.156;2023-03-23T11:27:52;17.60;27.50
1626;DHT22;806;48.770;9.156;2023-03-23T11:30:24;17.70;90.00
1626;DHT22;806;48.770;9.156;2023-03-23T11:32:54;17.70;98.70
1626;DHT22;806;48.770;9.156;2023-03-23T11:35:25;17.50;99.60
1626;DHT22;806;48.770;9.156;2023-03-23T11:37:54;17.50;99.90
1626;DHT22;806;48.770;9.156;2023-03-23T11:40:25;17.60;99.90
1626;DHT22;806;48.770;9.156;2023-03-23T11:42:58;17.80;99.90
1626;DHT22;806;48.770;9.156;2023-03-23T11:45:32;17.90;95.80
1626;DHT22;806;48.770;9.156;2023-03-23T11:48:13;18.00;70.00
1626;DHT22;806;48.770;9.156;2023-03-23T11:50:49;18.10;44.80
1626;DHT22;806;48.770;9.156;2023-03-23T11:53:27;18.10;25.90
1626;DHT22;806;48.770;9.156;2023-03-23T11:56:05;18.00;13.90
1626;DHT22;806;48.770;9.156;2023-03-23T11:58:33;18.00;8.30
1626;DHT22;806;48.770;9.156;2023-03-23T12:01:07;18.10;1.00
1626;DHT22;806;48.770;9.156;2023-03-23T12:06:49;18.10;1.00
1626;DHT22;806;48.770;9.156;2023-03-23T12:09:29;18.30;1.00
1626;DHT22;806;48.770;9.156;2023-03-23T12:12:08;18.60;1.00
1626;DHT22;806;48.770;9.156;2023-03-23T12:14:46;18.60;1.00
1626;DHT22;806;48.770;9.156;2023-03-23T12:17:23;18.50;1.00
1626;DHT22;806;48.770;9.156;2023-03-23T12:20:02;18.40;1.00
1626;DHT22;806;48.770;9.156;2023-03-23T12:22:44;18.30;1.00
1626;DHT22;806;48.770;9.156;2023-03-23T12:25:33;18.30;1.00
1626;DHT22;806;48.770;9.156;2023-03-23T12:28:12;18.50;1.00
1626;DHT22;806;48.770;9.156;2023-03-23T12:30:47;18.70;1.00
1626;DHT22;806;48.770;9.156;2023-03-23T12:33:26;18.80;1.00
1626;DHT22;806;48.770;9.156;2023-03-23T12:36:08;18.60;1.00
1626;DHT22;806;48.770;9.156;2023-03-23T12:38:50;18.50;1.00
1626;DHT22;806;48.770;9.156;2023-03-23T12:41:21;18.50;1.00
1626;DHT22;806;48.770;9.156;2023-03-23T12:43:52;18.60;1.00
1626;DHT22;806;48.770;9.156;2023-03-23T12:46:45;18.90;1.00
1626;DHT22;806;48.770;9.156;2023-03-23T12:49:20;19.10;1.00
1626;DHT22;806;48.770;9.156;2023-03-23T12:51:54;19.20;1.00
1626;DHT22;806;48.770;9.156;2023-03-23T12:54:29;19.20;1.00
1626;DHT22;806;48.770;9.156;2023-03-23T12:57:02;19.10;1.00
1626;DHT22;806;48.770;9.156;2023-03-23T12:59:36;18.90;1.00
1626;DHT22;806;48.770;9.156;2023-03-23T13:02:12;18.80;1.00
1626;DHT22;806;48.770;9.156;2023-03-23T13:04:45;18.50;1.00
1626;DHT22;806;48.770;9.156;2023-03-23T13:07:16;18.70;1.00
1626;DHT22;806;48.770;9.156;2023-03-23T13:09:49;18.70;1.00
1626;DHT22;806;48.770;9.156;2023-03-23T13:12:18;18.40;1.00
1626;DHT22;806;48.770;9.156;2023-03-23T13:14:57;18.40;1.00
1626;DHT22;806;48.770;9.156;2023-03-23T13:17:35;18.50;1.00
1626;DHT22;806;48.770;9.156;2023-03-23T13:23:01;18.70;1.00
1626;DHT22;806;48.770;9.156;2023-03-23T13:25:54;18.70;1.00
1626;DHT22;806;48.770;9.156;2023-03-23T13:28:25;18.70;1.00
1626;DHT22;806;48.770;9.156;2023-03-23T13:31:00;18.60;1.00
1626;DHT22;806;48.770;9.156;2023-03-23T13:33:32;18.60;1.00
1626;DHT22;806;48.770;9.156;2023-03-23T13:36:07;18.60;1.00
1626;DHT22;806;48.770;9.156;2023-03-23T13:38:37;18.60;1.00
1626;DHT22;806;48.770;9.156;2023-03-23T13:41:16;18.50;1.00
1626;DHT22;806;48.770;9.156;2023-03-23T13:43:44;18.50;1.00
1626;DHT22;806;48.770;9.156;2023-03-23T13:46:25;18.40;1.00
1626;DHT22;806;48.770;9.156;2023-03-23T13:49:16;18.30;1.00
1626;DHT22;806;48.770;9.156;2023-03-23T13:52:01;18.50;1.00
1626;DHT22;806;48.770;9.156;2023-03-23T13:54:40;18.50;1.00
1626;DHT22;806;48.770;9.156;2023-03-23T13:57:24;18.40;1.00
1626;DHT22;806;48.770;9.156;2023-03-23T13:59:57;18.30;1.00
1626;DHT22;806;48.770;9.156;2023-03-23T14:02:33;18.20;1.00
1626;DHT22;806;48.770;9.156;2023-03-23T14:05:10;18.20;1.00
1626;DHT22;806;48.770;9.156;2023-03-23T14:07:53;18.30;1.00
1626;DHT22;806;48.770;9.156;2023-03-23T14:10:23;18.30;1.00
1626;DHT22;806;48.770;9.156;2023-03-23T14:12:53;18.30;1.00
1626;DHT22;806;48.770;9.156;2023-03-23T14:15:20;18.20;1.00
1626;DHT22;806;48.770;9.156;2023-03-23T14:17:49;18.20;1.00
1626;DHT22;806;48.770;9.156;2023-03-23T14:20:24;18.20;1.00
1626;DHT22;806;48.770;9.156;2023-03-23T14:22:54;18.30;1.00
1626;DHT22;806;48.770;9.156;2023-03-23T14:25:22;18.30;1.00
1626;DHT22;806;48.770;9.156;2023-03-23T14:27:53;18.30;1.00
1626;DHT22;806;48.770;9.156;2023-03-23T14:30:22;18.30;1.00
1626;DHT22;806;48.770;9.156;2023-03-23T14:32:52;18.30;1.00
1626;DHT22;806;48.770;9.156;2023-03-23T14:35:24;18.20;1.00
1626;DHT22;806;48.770;9.156;2023-03-23T14:37:53;18.20;1.00
1626;DHT22;806;48.770;9.156;2023-03-23T14:40:20;18.10;1.00
1626;DHT22;806;48.770;9.156;2023-03-23T14:42:49;18.20;1.00
1626;DHT22;806;48.770;9.156;2023-03-23T14:45:19;18.20;1.00
1626;DHT22;806;48.770;9.156;2023-03-23T14:47:48;18.20;1.00
1626;DHT22;806;48.770;9.156;2023-03-23T14:50:26;18.20;1.00
1626;DHT22;806;48.770;9.156;2023-03-23T14:52:57;18.20;1.00
1626;DHT22;806;48.770;9.156;2023-03-23T14:55:24;18.20;1.00
1626;DHT22;806;48.770;9.156;2023-03-23T14:57:54;18.30;1.00
1626;DHT22;806;48.770;9.156;2023-03-23T15:00:24;18.30;1.00
1626;DHT22;806;48.770;9.156;2023-03-23T15:02:56;18.30;1.00
1626;DHT22;806;48.770;9.156;2023-03-23T15:05:28;18.20;1.00
1626;DHT22;806;48.770;9.156;2023-03-23T15:08:02;18.20;1.00
1626;DHT22;806;48.770;9.156;2023-03-23T15:10:30;18.20;1.00
1626;DHT22;806;48.770;9.156;2023-03-23T15:12:57;18.20;1.00
1626;DHT22;806;48.770;9.156;2023-03-23T15:15:27;18.20;1.00
1626;DHT22;806;48.770;9.156;2023-03-23T15:17:54;18.20;1.00
1626;DHT22;806;48.770;9.156;2023-03-23T15:20:24;18.20;1.00
1626;DHT22;806;48.770;9.156;2023-03-23T15:22:53;18.30;1.00
1626;DHT22;806;48.770;9.156;2023-03-23T15:25:22;18.30;1.00
1626;DHT22;806;48.770;9.156;2023-03-23T15:27:51;18.30;1.00
1626;DHT22;806;48.770;9.156;2023-03-23T15:30:32;18.30;1.00
1626;DHT22;806;48.770;9.156;2023-03-23T15:33:02;18.20;1.00
1626;DHT22;806;48.770;9.156;2023-03-23T15:35:34;18.20;1.00
1626;DHT22;806;48.770;9.156;2023-03-23T15:38:05;18.20;1.00
1626;DHT22;806;48.770;9.156;2023-03-23T15:40:34;18.10;1.00
1626;DHT22;806;48.770;9.156;2023-03-23T15:43:07;18.00;1.00
1626;DHT22;806;48.770;9.156;2023-03-23T15:45:34;17.90;1.00
1626;DHT22;806;48.770;9.156;2023-03-23T15:48:10;17.90;1.00
1626;DHT22;806;48.770;9.156;2023-03-23T15:50:40;17.90;1.00
1626;DHT22;806;48.770;9.156;2023-03-23T15:53:19;17.80;1.00
1626;DHT22;806;48.770;9.156;2023-03-23T15:55:54;17.80;1.00
1626;DHT22;806;48.770;9.156;2023-03-23T15:58:21;17.70;1.00
1626;DHT22;806;48.770;9.156;2023-03-23T16:00:50;17.70;1.00
1626;DHT22;806;48.770;9.156;2023-03-23T16:03:21;17.60;1.00
1626;DHT22;806;48.770;9.156;2023-03-23T16:05:52;17.60;1.00
1626;DHT22;806;48.770;9.156;2023-03-23T16:08:20;17.60;1.00
1626;DHT22;806;48.770;9.156;2023-03-23T16:10:47;17.60;1.00
1626;DHT22;806;48.770;9.156;2023-03-23T16:13:15;17.50;1.00
1626;DHT22;806;48.770;9.156;2023-03-23T16:15:44;17.50;1.00
1626;DHT22;806;48.770;9.156;2023-03-23T16:18:16;17.50;1.00
1626;DHT22;806;48.770;9.156;2023-03-23T16:20:44;17.40;1.00
1626;DHT22;806;48.770;9.156;2023-03-23T16:23:11;17.40;1.00
1626;DHT22;806;48.770;9.156;2023-03-23T16:25:39;17.40;1.00
1626;DHT22;806;48.770;9.156;2023-03-23T16:28:10;17.30;1.00
1626;DHT22;806;48.770;9.156;2023-03-23T16:30:37;17.30;1.00
1626;DHT22;806;48.770;9.156;2023-03-23T16:33:05;17.20;1.00
1626;DHT22;806;48.770;9.156;2023-03-23T16:35:32;17.20;1.00
1626;DHT22;806;48.770;9.156;2023-03-23T16:37:59;17.20;1.00
1626;DHT22;806;48.770;9.156;2023-03-23T16:40:26;17.20;1.00
1626;DHT22;806;48.770;9.156;2023-03-23T16:42:55;17.20;1.00
1626;DHT22;806;48.770;9.156;2023-03-23T16:45:22;17.20;1.00
1626;DHT22;806;48.770;9.156;2023-03-23T16:47:51;17.20;1.00
1626;DHT22;806;48.770;9.156;2023-03-23T16:50:20;17.20;1.00
1626;DHT22;806;48.770;9.156;2023-03-23T16:52:47;17.20;1.00
1626;DHT22;806;48.770;9.156;2023-03-23T16:55:15;17.10;1.00
1626;DHT22;806;48.770;9.156;2023-03-23T16:57:43;17.20;1.00
1626;DHT22;806;48.770;9.156;2023-03-23T17:00:14;17.10;1.00
1626;DHT22;806;48.770;9.156;2023-03-23T17:02:46;17.10;1.00
1626;DHT22;806;48.770;9.156;2023-03-23T17:05:14;17.00;1.00
1626;DHT22;806;48.770;9.156;2023-03-23T17:07:42;17.00;1.00